Time;durP1;ratioP1;P1;durP2;ratioP2;P2;SDS_P1;SDS_P2;PMS_P1;PMS_P2;Temp;Humidity;BMP_temperature;BMP_pressure;BME280_temperature;BME280_humidity;BME280_pressure;Samples;Min_cycle;Max_cycle;Signal;HPM_P1;HPM_P2
2022/02/21 00:01:00;;;;;;;5.25;3.20;;;;;;;13.97;72.44;101713.34;2036085;29;20083;-78
2022/02/21 00:02:22;;;;;;;5.90;2.03;;;;;;;14.00;72.43;101705.41;2033606;29;20086;-78
2022/02/21 00:03:45;;;;;;;9.18;2.17;;;;;;;14.05;72.43;101716.09;2039734;29;20051;-78
2022/02/21 00:05:08;;;;;;;4.28;1.63;;;;;;;14.10;72.06;101702.06;2040924;29;20055;-78
2022/02/21 00:06:32;;;;;;;2.55;1.48;;;;;;;14.09;72.18;101697.63;2040922;29;20142;-78
2022/02/21 00:07:55;;;;;;;4.50;1.30;;;;;;;14.02;71.99;101697.50;2042666;29;20125;-77
2022/02/21 00:09:18;;;;;;;1.42;0.75;;;;;;;13.97;72.23;101694.78;2045651;29;20593;-78
2022/02/21 00:10:40;;;;;;;5.50;1.20;;;;;;;13.92;72.44;101691.13;2037850;29;20114;-78
2022/02/21 00:12:03;;;;;;;3.47;0.70;;;;;;;13.89;72.36;101688.44;2043820;29;20054;-78
2022/02/21 00:13:25;;;;;;;1.05;0.70;;;;;;;13.86;72.71;101694.56;2038224;29;20163;-78
2022/02/21 00:14:48;;;;;;;3.28;1.17;;;;;;;13.81;72.71;101698.91;2033053;29;20064;-78
2022/02/21 00:16:11;;;;;;;5.18;1.75;;;;;;;13.78;72.86;101706.84;2024831;29;20048;-78
2022/02/21 00:17:33;;;;;;;3.70;2.00;;;;;;;13.79;72.85;101708.59;2042056;29;20047;-78
2022/02/21 00:18:56;;;;;;;5.32;2.10;;;;;;;13.80;73.03;101701.53;2038480;29;20040;-77
2022/02/21 00:20:18;;;;;;;6.85;2.63;;;;;;;13.79;72.62;101699.75;2035576;29;20059;-78
2022/02/21 00:21:43;;;;;;;3.75;1.88;;;;;;;13.82;72.69;101695.41;2035871;29;20051;-78
2022/02/21 00:23:07;;;;;;;2.10;0.93;;;;;;;13.83;72.78;101690.97;2046366;29;20054;-77
2022/02/21 00:24:29;;;;;;;0.90;0.77;;;;;;;13.84;72.78;101682.16;2038448;29;20051;-78
2022/02/21 00:25:51;;;;;;;1.60;1.05;;;;;;;13.83;72.82;101678.59;2047531;28;20534;-78
2022/02/21 00:27:14;;;;;;;3.88;2.03;;;;;;;13.84;72.83;101676.84;2048747;28;20043;-77
2022/02/21 00:28:37;;;;;;;6.18;1.50;;;;;;;13.86;72.62;101672.44;2032884;29;20083;-77
2022/02/21 00:29:58;;;;;;;3.35;1.10;;;;;;;13.87;72.39;101668.91;2043705;29;20040;-78
2022/02/21 00:31:21;;;;;;;2.58;1.00;;;;;;;13.87;72.28;101675.13;2046996;28;20047;-77
2022/02/21 00:32:43;;;;;;;4.03;1.38;;;;;;;13.82;72.57;101660.88;2044012;29;20047;-78
2022/02/21 00:34:06;;;;;;;3.10;1.20;;;;;;;13.82;72.66;101662.66;2037847;29;20052;-78
2022/02/21 00:35:29;;;;;;;4.05;1.50;;;;;;;13.84;73.07;101650.31;2041749;29;20450;-77
2022/02/21 00:36:53;;;;;;;5.68;1.88;;;;;;;13.87;72.63;101643.28;2037826;29;20063;-77
2022/02/21 00:38:15;;;;;;;4.35;1.80;;;;;;;13.89;72.95;101635.34;2041789;29;20046;-77
2022/02/21 00:39:38;;;;;;;5.07;1.50;;;;;;;13.93;72.71;101635.41;2040438;29;20051;-77
2022/02/21 00:41:00;;;;;;;4.57;2.10;;;;;;;13.97;72.73;101639.03;2040822;29;20059;-78
2022/02/21 00:42:22;;;;;;;4.78;1.50;;;;;;;13.99;72.43;101639.91;2045276;29;20043;-78
2022/02/21 00:43:44;;;;;;;3.55;1.90;;;;;;;14.02;72.35;101637.31;2037720;29;20128;-78
2022/02/21 00:45:09;;;;;;;4.45;1.40;;;;;;;14.02;72.18;101631.13;2035089;29;20087;-78
2022/02/21 00:46:32;;;;;;;6.75;1.90;;;;;;;14.04;72.32;101634.69;2043712;29;20039;-79
2022/02/21 00:47:54;;;;;;;3.75;2.10;;;;;;;14.05;72.17;101625.84;2032741;29;20516;-78
2022/02/21 00:49:17;;;;;;;2.70;1.38;;;;;;;14.06;72.29;101624.97;2042568;28;20051;-78
2022/02/21 00:50:40;;;;;;;4.00;1.58;;;;;;;14.07;72.23;101624.09;2046068;28;20047;-77
2022/02/21 00:52:04;;;;;;;2.72;1.23;;;;;;;14.11;72.43;101621.50;2045264;29;20055;-78
2022/02/21 00:53:27;;;;;;;6.72;2.15;;;;;;;14.11;72.13;101624.16;2045861;29;20427;-77
2022/02/21 00:54:49;;;;;;;6.22;1.40;;;;;;;14.12;72.12;101618.00;2046020;29;20151;-77
2022/02/21 00:56:13;;;;;;;2.25;1.40;;;;;;;14.08;72.22;101616.19;2035626;29;20060;-78
2022/02/21 00:57:35;;;;;;;3.10;1.00;;;;;;;14.06;72.29;101612.59;2035300;29;20575;-77
2022/02/21 00:58:56;;;;;;;15.05;7.25;;;;;;;13.98;72.46;101611.56;2035721;29;20043;-77
2022/02/21 01:00:20;;;;;;;13.40;8.65;;;;;;;13.92;72.44;101603.53;2042180;29;20049;-78
2022/02/21 01:01:42;;;;;;;8.68;3.80;;;;;;;13.88;72.66;101597.28;2037392;29;20040;-77
2022/02/21 01:03:05;;;;;;;8.82;4.78;;;;;;;13.90;72.59;101599.97;2045531;28;20081;-78
2022/02/21 01:04:27;;;;;;;7.28;3.67;;;;;;;13.90;72.29;101610.59;2045328;29;20069;-78
2022/02/21 01:05:50;;;;;;;5.00;1.77;;;;;;;13.90;72.53;101602.63;2037413;29;20059;-78
2022/02/21 01:07:15;;;;;;;4.60;2.05;;;;;;;13.90;72.34;101589.34;2035570;29;20063;-78
2022/02/21 01:08:37;;;;;;;7.85;4.20;;;;;;;13.85;72.09;101591.03;2035502;29;20066;-78
2022/02/21 01:10:00;;;;;;;8.80;6.10;;;;;;;13.80;72.06;101584.75;2043270;29;20059;-78
2022/02/21 01:11:21;;;;;;;9.65;7.00;;;;;;;13.77;72.44;101590.03;2048253;28;20055;-78
2022/02/21 01:12:44;;;;;;;10.43;7.97;;;;;;;13.78;72.14;101589.16;2045943;28;20051;-78
2022/02/21 01:14:07;;;;;;;8.93;5.95;;;;;;;13.77;72.54;101593.59;2040234;29;20087;-78
2022/02/21 01:15:30;;;;;;;7.65;3.58;;;;;;;13.70;72.23;101590.81;2037478;29;20048;-77
2022/02/21 01:16:52;;;;;;;8.30;5.20;;;;;;;13.66;72.54;101589.84;2043478;29;20046;-78
2022/02/21 01:18:15;;;;;;;18.45;16.10;;;;;;;13.63;72.33;101595.13;2040314;29;20079;-78
2022/02/21 01:19:38;;;;;;;10.45;9.23;;;;;;;13.62;72.43;101587.13;2045605;29;20047;-77
2022/02/21 01:21:03;;;;;;;13.02;9.18;;;;;;;13.63;72.63;101578.31;2037869;29;20084;-78
2022/02/21 01:22:27;;;;;;;8.70;5.97;;;;;;;13.62;72.44;101579.16;2038170;29;20039;-77
2022/02/21 01:23:50;;;;;;;7.68;3.58;;;;;;;13.58;72.52;101572.94;2053174;28;20047;-77
2022/02/21 01:25:12;;;;;;;12.25;4.47;;;;;;;13.55;72.18;101575.53;2040215;29;20418;-77
2022/02/21 01:26:33;;;;;;;2.50;2.28;;;;;;;13.52;72.23;101570.19;2043284;28;20138;-77
2022/02/21 01:27:56;;;;;;;7.95;3.65;;;;;;;13.50;72.08;101577.22;2045284;28;20498;-79
2022/02/21 01:29:18;;;;;;;6.80;3.33;;;;;;;13.47;72.41;101566.53;2046383;29;20039;-78
2022/02/21 01:30:40;;;;;;;4.68;2.60;;;;;;;13.49;72.13;101563.06;2053152;28;20050;-78
2022/02/21 01:32:02;;;;;;;7.65;2.90;;;;;;;13.49;72.13;101564.81;2034967;28;20528;-77
2022/02/21 01:33:25;;;;;;;5.72;2.55;;;;;;;13.50;72.41;101562.19;2042847;29;20043;-77
2022/02/21 01:34:48;;;;;;;2.90;1.70;;;;;;;13.55;72.21;101565.81;2040151;29;20526;-77
2022/02/21 01:36:09;;;;;;;4.78;2.72;;;;;;;13.58;72.11;101554.34;2049550;28;20050;-77
2022/02/21 01:37:33;;;;;;;3.75;1.92;;;;;;;13.63;72.25;101560.63;2048162;28;20704;-78
2022/02/21 01:38:56;;;;;;;4.07;2.20;;;;;;;13.63;72.25;101551.78;2045684;29;20447;-78
2022/02/21 01:40:20;;;;;;;5.40;2.97;;;;;;;13.64;72.08;101554.44;2037447;29;20058;-77
2022/02/21 01:41:43;;;;;;;11.52;4.65;;;;;;;13.67;72.12;101546.53;2050581;28;20109;-77
2022/02/21 01:43:05;;;;;;;7.65;3.97;;;;;;;13.67;71.98;101554.47;2048161;28;20051;-77
2022/02/21 01:44:37;;;;;;;9.95;4.15;;;;;;;13.73;72.07;101553.69;2032047;29;20115;-78
2022/02/21 01:45:59;;;;;;;5.82;2.97;;;;;;;13.72;72.36;101549.28;2040713;29;20048;-78
2022/02/21 01:47:24;;;;;;;16.02;6.28;;;;;;;13.69;72.03;101538.59;2042224;28;20604;-77
2022/02/21 01:48:47;;;;;;;11.23;4.43;;;;;;;13.67;72.41;101540.31;2045439;29;20043;-78
2022/02/21 01:50:10;;;;;;;12.32;3.58;;;;;;;13.70;72.37;101551.00;2040295;29;20050;-78
2022/02/21 01:51:33;;;;;;;6.72;2.13;;;;;;;13.68;72.81;101544.75;2037614;29;20059;-78
2022/02/21 01:52:58;;;;;;;4.72;2.70;;;;;;;13.66;72.86;101549.16;2043505;29;20717;-78
2022/02/21 01:54:23;;;;;;;5.45;2.60;;;;;;;13.68;72.99;101544.75;2040075;29;20130;-78
2022/02/21 01:55:45;;;;;;;4.38;2.35;;;;;;;13.67;72.73;101535.91;2036946;29;20388;-79
2022/02/21 01:57:08;;;;;;;3.45;2.03;;;;;;;13.70;73.03;101529.78;2043251;29;20515;-78
2022/02/21 01:58:31;;;;;;;4.05;1.98;;;;;;;13.72;72.77;101543.97;2037325;29;20124;-78
2022/02/21 01:59:53;;;;;;;3.30;1.52;;;;;;;13.72;72.73;101552.78;2045309;29;20074;-79
2022/02/21 02:01:16;;;;;;;4.45;2.00;;;;;;;13.72;72.62;101543.97;2037284;29;20056;-78
2022/02/21 02:02:43;;;;;;;4.45;2.33;;;;;;;13.73;72.87;101546.63;2029923;29;20091;-78
2022/02/21 02:04:06;;;;;;;3.22;1.83;;;;;;;13.78;72.63;101547.59;2048330;28;20046;-78
2022/02/21 02:05:29;;;;;;;6.78;1.90;;;;;;;13.80;72.49;101550.25;2047496;28;20083;-78
2022/02/21 02:06:51;;;;;;;4.65;1.90;;;;;;;13.84;72.48;101560.06;2045531;29;20043;-78
2022/02/21 02:08:15;;;;;;;3.80;1.63;;;;;;;13.87;72.67;101565.41;2045085;29;20047;-78
2022/02/21 02:09:39;;;;;;;6.30;2.55;;;;;;;13.84;72.69;101565.38;2037446;29;20055;-78
2022/02/21 02:11:02;;;;;;;5.07;2.92;;;;;;;13.84;72.57;101570.69;2037914;29;20066;-78
2022/02/21 02:12:25;;;;;;;4.90;2.28;;;;;;;13.84;72.58;101566.28;2045192;28;20105;-78
2022/02/21 02:13:51;;;;;;;6.38;2.60;;;;;;;13.84;72.34;101563.63;2045429;29;20059;-78
2022/02/21 02:15:14;;;;;;;8.18;2.67;;;;;;;13.75;72.50;101560.81;2045701;28;20035;-78
2022/02/21 02:16:37;;;;;;;12.13;4.00;;;;;;;13.66;72.96;101552.69;2045142;29;20094;-78
2022/02/21 02:17:59;;;;;;;7.13;4.05;;;;;;;13.66;72.93;101551.78;2048004;28;20043;-78
2022/02/21 02:19:20;;;;;;;8.35;4.15;;;;;;;13.68;73.06;101545.66;2044801;29;20054;-79
2022/02/21 02:20:43;;;;;;;9.27;4.75;;;;;;;13.72;73.20;101543.97;2036031;29;20079;-78
2022/02/21 02:22:13;;;;;;;5.57;2.58;;;;;;;13.76;72.79;101557.28;2037607;29;20051;-79
2022/02/21 02:23:35;;;;;;;4.88;2.00;;;;;;;13.74;73.06;101550.16;2038022;29;20051;-79
2022/02/21 02:24:57;;;;;;;3.60;1.65;;;;;;;13.76;73.15;101554.63;2030951;29;20391;-78
2022/02/21 02:26:21;;;;;;;5.93;1.75;;;;;;;13.76;73.16;101551.09;2034573;29;20046;-78
2022/02/21 02:27:43;;;;;;;3.22;2.00;;;;;;;13.78;72.92;101554.66;2035192;29;20648;-79
2022/02/21 02:29:06;;;;;;;2.78;1.40;;;;;;;13.77;73.27;101551.13;2042833;29;20086;-79
2022/02/21 02:30:29;;;;;;;2.20;0.80;;;;;;;13.77;73.27;101547.56;2031516;29;20124;-78
2022/02/21 02:31:50;;;;;;;2.45;0.82;;;;;;;13.77;73.02;101556.44;2034573;29;20051;-78
2022/02/21 02:33:13;;;;;;;2.75;1.13;;;;;;;13.79;73.47;101551.13;2037363;29;20062;-78
2022/02/21 02:34:37;;;;;;;3.25;1.45;;;;;;;13.81;73.54;101546.72;2037473;29;20051;-77
2022/02/21 02:36:00;;;;;;;4.65;1.83;;;;;;;13.84;73.43;101538.84;2048900;28;20051;-78
2022/02/21 02:37:24;;;;;;;5.45;2.55;;;;;;;13.88;73.24;101533.59;2046889;28;20051;-78
2022/02/21 02:38:47;;;;;;;3.83;1.30;;;;;;;13.89;73.47;101537.13;2044520;28;20571;-78
2022/02/21 02:40:11;;;;;;;1.38;0.85;;;;;;;13.92;73.29;101538.06;2033031;29;20499;-78
2022/02/21 02:41:34;;;;;;;2.95;0.98;;;;;;;13.96;73.20;101528.38;2050636;28;20042;-78
2022/02/21 02:42:56;;;;;;;2.08;0.93;;;;;;;13.99;72.96;101531.06;2047924;28;20097;-78
2022/02/21 02:44:22;;;;;;;2.30;1.17;;;;;;;14.03;72.87;101519.66;2036926;29;20594;-78
2022/02/21 02:45:45;;;;;;;4.10;1.15;;;;;;;14.07;73.04;101518.81;2040646;29;20055;-78
2022/02/21 02:47:09;;;;;;;4.00;1.48;;;;;;;14.10;72.72;101515.31;2045112;28;20086;-78
2022/02/21 02:48:32;;;;;;;3.08;0.63;;;;;;;14.12;72.94;101516.19;2029497;29;20066;-78
2022/02/21 02:49:55;;;;;;;5.88;1.63;;;;;;;14.13;72.78;101508.25;2040315;28;20073;-78
2022/02/21 02:51:17;;;;;;;1.55;0.70;;;;;;;14.15;72.99;101505.63;2044958;28;20447;-78
2022/02/21 02:52:42;;;;;;;1.02;0.80;;;;;;;14.16;72.94;101510.06;2045424;29;20134;-78
2022/02/21 02:54:07;;;;;;;1.60;0.88;;;;;;;14.19;73.00;101497.72;2045481;28;20039;-78
2022/02/21 02:55:30;;;;;;;3.35;1.05;;;;;;;14.23;72.89;101502.22;2044905;29;20145;-78
2022/02/21 02:56:52;;;;;;;0.85;0.70;;;;;;;14.28;72.52;101499.59;2037067;29;20476;-78
2022/02/21 02:58:15;;;;;;;1.23;0.80;;;;;;;14.30;72.77;101501.41;2044746;29;20142;-77
2022/02/21 02:59:37;;;;;;;7.57;1.48;;;;;;;14.33;72.76;101490.81;2034519;29;20455;-77
2022/02/21 03:01:00;;;;;;;3.08;1.05;;;;;;;14.39;72.67;101494.44;2038422;29;20047;-77
2022/02/21 03:02:23;;;;;;;3.35;1.02;;;;;;;14.45;72.60;101498.06;2037565;29;20377;-79
2022/02/21 03:03:46;;;;;;;4.57;1.20;;;;;;;14.51;72.51;101500.78;2037599;29;20062;-80
2022/02/21 03:05:09;;;;;;;0.43;0.43;;;;;;;14.54;72.65;101503.50;2037601;29;20451;-78
2022/02/21 03:06:32;;;;;;;1.45;0.80;;;;;;;14.56;72.72;101509.72;2045396;29;20130;-80
2022/02/21 03:07:55;;;;;;;3.00;0.88;;;;;;;14.62;71.99;101503.56;2040404;28;20051;-79
2022/02/21 03:09:18;;;;;;;3.20;1.35;;;;;;;14.63;72.62;101503.59;2045492;29;20142;-79
2022/02/21 03:10:41;;;;;;;2.63;0.70;;;;;;;14.65;72.17;101503.59;2037265;29;20062;-79
2022/02/21 03:12:04;;;;;;;2.70;1.13;;;;;;;14.63;72.50;101495.63;2039997;29;20134;-79
2022/02/21 03:13:27;;;;;;;1.92;1.00;;;;;;;14.64;72.26;101496.50;2037561;29;20047;-79
2022/02/21 03:14:49;;;;;;;2.60;1.08;;;;;;;14.62;72.49;101488.53;2034728;29;20043;-79
2022/02/21 03:16:10;;;;;;;5.35;0.98;;;;;;;14.63;72.38;101497.41;2050525;28;20039;-79
2022/02/21 03:17:33;;;;;;;4.45;1.75;;;;;;;14.62;72.62;101501.81;2047691;28;20065;-79
2022/02/21 03:18:56;;;;;;;2.85;1.30;;;;;;;14.64;72.93;101494.72;2045279;28;20100;-79
2022/02/21 03:20:17;;;;;;;3.50;1.17;;;;;;;14.66;72.84;101500.06;2044481;28;20078;-79
2022/02/21 03:21:40;;;;;;;5.68;1.55;;;;;;;14.65;72.84;101498.28;2039872;29;20051;-78
2022/02/21 03:23:04;;;;;;;3.53;1.10;;;;;;;14.68;72.73;101503.63;2034849;29;20055;-78
2022/02/21 03:24:27;;;;;;;2.97;1.52;;;;;;;14.64;72.82;101502.69;2042848;29;20142;-78
2022/02/21 03:25:50;;;;;;;2.88;1.17;;;;;;;14.67;72.64;101507.16;2042984;28;20051;-78
2022/02/21 03:27:13;;;;;;;8.50;0.98;;;;;;;14.65;72.88;101500.94;2045091;28;20055;-79
2022/02/21 03:28:34;;;;;;;4.70;0.90;;;;;;;14.66;72.81;101495.66;2044688;29;20070;-78
2022/02/21 03:29:56;;;;;;;4.85;1.73;;;;;;;14.67;72.76;101499.19;2047333;28;20039;-78
2022/02/21 03:31:19;;;;;;;4.18;0.75;;;;;;;14.67;72.95;101489.47;2042211;28;20059;-79
2022/02/21 03:32:41;;;;;;;4.18;1.67;;;;;;;14.67;72.96;101499.19;2047503;28;20146;-79
2022/02/21 03:34:04;;;;;;;1.63;1.00;;;;;;;14.67;72.98;101491.22;2039342;29;20047;-78
2022/02/21 03:35:26;;;;;;;4.15;0.90;;;;;;;14.70;72.92;101491.28;2037341;29;20048;-78
2022/02/21 03:36:49;;;;;;;1.50;0.80;;;;;;;14.69;72.95;101494.81;2037193;29;20055;-79
2022/02/21 03:38:12;;;;;;;3.22;1.05;;;;;;;14.70;73.06;101483.31;2039782;28;20047;-77
2022/02/21 03:39:34;;;;;;;4.80;1.88;;;;;;;14.69;72.82;101478.84;2037119;29;20051;-78
2022/02/21 03:40:59;;;;;;;4.18;1.40;;;;;;;14.70;73.43;101477.97;2036124;29;20369;-78
2022/02/21 03:42:21;;;;;;;8.23;1.67;;;;;;;14.71;73.39;101485.06;2044465;29;20074;-79
2022/02/21 03:43:44;;;;;;;7.10;1.92;;;;;;;14.72;73.56;101484.19;2043602;28;20104;-79
2022/02/21 03:45:08;;;;;;;3.42;1.20;;;;;;;14.74;73.13;101477.13;2030778;29;20056;-78
2022/02/21 03:46:31;;;;;;;3.55;1.13;;;;;;;14.73;73.32;101484.22;2051547;28;20050;-79
2022/02/21 03:47:53;;;;;;;4.25;1.30;;;;;;;14.73;73.46;101476.22;2048655;28;21563;-78
2022/02/21 03:49:15;;;;;;;;;;;;;;;14.75;73.27;101473.59;2040166;28;20068;-78
2022/02/21 03:50:38;;;;;;;2.80;0.82;;;;;;;14.70;73.61;101478.84;2035717;29;19923;-78
2022/02/21 03:52:00;;;;;;;1.77;1.45;;;;;;;14.68;73.65;101472.66;2042739;29;20043;-78
2022/02/21 03:53:25;;;;;;;5.68;1.35;;;;;;;14.69;73.76;101474.44;2044303;29;20129;-78
2022/02/21 03:54:47;;;;;;;2.45;0.82;;;;;;;14.70;73.57;101472.66;2046243;29;20086;-79
2022/02/21 03:56:10;;;;;;;5.15;1.30;;;;;;;14.69;73.63;101466.47;2038219;29;20087;-79
2022/02/21 03:57:33;;;;;;;3.53;1.02;;;;;;;14.69;73.85;101470.88;2042378;29;20047;-77
2022/02/21 03:58:55;;;;;;;1.45;1.02;;;;;;;14.70;73.77;101464.69;2042412;28;20047;-78
2022/02/21 04:00:21;;;;;;;2.33;1.30;;;;;;;14.71;73.90;101472.66;2030349;29;20052;-78
2022/02/21 04:01:43;;;;;;;2.90;1.13;;;;;;;14.72;73.95;101474.44;2048033;28;20411;-78
2022/02/21 04:03:06;;;;;;;5.60;1.92;;;;;;;14.72;73.76;101468.22;2048987;28;20076;-77
2022/02/21 04:04:29;;;;;;;5.32;1.10;;;;;;;14.73;73.95;101467.38;2044401;28;20067;-78
2022/02/21 04:05:50;;;;;;;4.65;1.20;;;;;;;14.73;73.97;101473.56;2046596;29;20127;-78
2022/02/21 04:07:13;;;;;;;2.60;0.90;;;;;;;14.75;73.95;101478.91;2030495;29;20135;-78
2022/02/21 04:08:38;;;;;;;8.13;2.08;;;;;;;14.78;73.66;101478.94;2043271;29;20452;-78
2022/02/21 04:10:02;;;;;;;4.93;2.38;;;;;;;14.77;73.64;101485.13;2040960;29;20047;-78
2022/02/21 04:11:24;;;;;;;3.90;1.60;;;;;;;14.78;73.84;101492.22;2030617;29;20055;-78
2022/02/21 04:12:47;;;;;;;7.00;2.28;;;;;;;14.80;73.76;101500.22;2043750;29;20051;-78
2022/02/21 04:14:10;;;;;;;5.47;1.50;;;;;;;14.80;73.78;101501.09;2046493;29;20059;-78
2022/02/21 04:15:33;;;;;;;2.55;1.02;;;;;;;14.80;73.74;101509.09;2038187;29;20118;-78
2022/02/21 04:16:56;;;;;;;3.35;1.50;;;;;;;14.79;73.65;101517.94;2038462;29;20503;-78
2022/02/21 04:18:17;;;;;;;3.70;1.40;;;;;;;14.79;73.72;101515.28;2044734;28;20496;-79
2022/02/21 04:19:40;;;;;;;3.80;1.30;;;;;;;14.80;73.97;101521.47;2025238;29;20052;-78
2022/02/21 04:21:02;;;;;;;5.03;1.38;;;;;;;14.80;73.96;101524.13;2038375;29;20048;-78
2022/02/21 04:22:25;;;;;;;2.70;1.13;;;;;;;14.77;73.76;101517.00;2042897;28;20051;-78
2022/02/21 04:23:49;;;;;;;3.17;1.58;;;;;;;14.75;73.72;101513.47;2056134;28;20042;-79
2022/02/21 04:25:13;;;;;;;4.25;1.30;;;;;;;14.72;73.99;101521.41;2040738;28;20127;-78
2022/02/21 04:26:35;;;;;;;2.58;0.98;;;;;;;14.71;73.73;101522.25;2046117;28;20094;-78
2022/02/21 04:27:58;;;;;;;3.72;1.05;;;;;;;14.69;73.99;101518.72;2045672;28;20208;-78
2022/02/21 04:29:21;;;;;;;5.85;1.30;;;;;;;14.67;73.88;101508.06;2034142;29;20067;-76
2022/02/21 04:30:43;;;;;;;3.40;0.95;;;;;;;14.66;73.95;101513.34;2046130;29;20158;-78
2022/02/21 04:32:07;;;;;;;5.53;1.17;;;;;;;14.68;73.96;101499.22;2046029;29;20109;-78
2022/02/21 04:33:29;;;;;;;3.75;1.20;;;;;;;14.67;73.98;101477.94;2046445;28;20142;-78
2022/02/21 04:34:51;;;;;;;2.70;0.88;;;;;;;14.66;73.74;101481.47;2038104;29;20504;-78
2022/02/21 04:36:14;;;;;;;6.65;1.83;;;;;;;14.66;73.64;101477.03;2051231;28;20415;-78
2022/02/21 04:37:38;;;;;;;3.30;0.95;;;;;;;14.66;73.91;101470.84;2048171;28;20043;-78
2022/02/21 04:39:02;;;;;;;6.75;1.88;;;;;;;14.66;73.53;101469.06;2039577;29;20106;-78
2022/02/21 04:40:27;;;;;;;2.08;1.02;;;;;;;14.67;73.60;101468.19;2046107;28;20122;-79
2022/02/21 04:41:50;;;;;;;2.17;1.17;;;;;;;14.69;73.40;101470.88;2053870;28;20070;-78
2022/02/21 04:43:12;;;;;;;3.80;2.08;;;;;;;14.74;73.19;101472.72;2048561;29;20134;-77
2022/02/21 04:44:35;;;;;;;6.03;1.42;;;;;;;14.76;72.92;101472.72;2039296;29;20051;-78
2022/02/21 04:45:58;;;;;;;10.65;1.98;;;;;;;14.80;72.78;101469.22;2041405;29;20047;-78
2022/02/21 04:47:19;;;;;;;3.38;1.08;;;;;;;14.83;73.13;101466.59;2046062;29;20043;-77
2022/02/21 04:48:42;;;;;;;4.65;1.33;;;;;;;14.85;73.14;101475.44;2053601;28;20142;-78
2022/02/21 04:50:04;;;;;;;7.60;1.52;;;;;;;14.88;73.19;101467.53;2040552;29;20141;-78
2022/02/21 04:51:27;;;;;;;5.47;1.40;;;;;;;14.89;72.76;101469.31;2045581;28;20055;-78
2022/02/21 04:52:49;;;;;;;4.28;1.50;;;;;;;14.90;72.62;101473.72;2032804;29;20051;-78
2022/02/21 04:54:14;;;;;;;8.27;1.48;;;;;;;14.92;72.86;101469.31;2046028;28;20187;-78
2022/02/21 04:55:36;;;;;;;3.88;1.55;;;;;;;14.92;73.06;101471.09;2046244;29;20375;-78
2022/02/21 04:56:59;;;;;;;5.15;1.40;;;;;;;14.93;73.09;101464.91;2039683;29;20060;-78
2022/02/21 04:58:22;;;;;;;3.38;1.20;;;;;;;14.93;72.96;101468.44;2051193;28;20042;-78
2022/02/21 04:59:45;;;;;;;4.97;1.40;;;;;;;14.93;73.19;101476.44;2047763;28;20055;-78
2022/02/21 05:01:07;;;;;;;4.78;1.20;;;;;;;14.95;73.31;101460.50;2034501;29;20106;-78
2022/02/21 05:02:30;;;;;;;3.13;1.48;;;;;;;14.96;72.92;101462.28;2043576;28;20055;-78
2022/02/21 05:03:53;;;;;;;5.80;1.45;;;;;;;14.97;73.22;101464.94;2040218;29;20463;-77
2022/02/21 05:05:15;;;;;;;2.17;1.20;;;;;;;14.96;73.01;101462.28;2035456;29;20496;-78
2022/02/21 05:06:38;;;;;;;6.32;1.30;;;;;;;14.97;72.91;101456.94;2043238;28;20061;-78
2022/02/21 05:08:03;;;;;;;7.10;1.48;;;;;;;14.99;72.72;101459.63;2048420;28;20462;-79
2022/02/21 05:09:26;;;;;;;4.80;1.67;;;;;;;14.97;72.90;101456.94;2037780;29;20066;-78
2022/02/21 05:10:49;;;;;;;7.13;1.98;;;;;;;14.98;73.08;101457.84;2039371;29;20416;-78
2022/02/21 05:12:12;;;;;;;5.85;1.23;;;;;;;14.96;72.85;101460.50;2045656;29;20050;-78
2022/02/21 05:13:37;;;;;;;5.90;1.40;;;;;;;14.98;72.84;101453.41;2048559;29;20538;-78
2022/02/21 05:14:59;;;;;;;4.90;0.98;;;;;;;14.98;72.75;101461.41;2045484;29;20035;-78
2022/02/21 05:16:22;;;;;;;3.80;1.00;;;;;;;14.98;72.65;101445.44;2045408;29;20833;-77
2022/02/21 05:17:45;;;;;;;1.67;0.88;;;;;;;14.97;72.60;101459.59;2037720;29;20099;-78
2022/02/21 05:19:06;;;;;;;3.33;1.13;;;;;;;14.98;72.33;101460.50;2045122;29;20105;-78
2022/02/21 05:20:28;;;;;;;4.65;1.63;;;;;;;14.97;72.35;101448.97;2045646;28;20110;-77
2022/02/21 05:21:51;;;;;;;6.55;2.67;;;;;;;14.97;72.53;101456.94;2037754;29;20047;-78
2022/02/21 05:23:13;;;;;;;6.07;2.28;;;;;;;14.97;72.34;101456.94;2038023;29;20091;-77
2022/02/21 05:24:37;;;;;;;9.88;2.70;;;;;;;15.02;72.67;101451.69;2029951;29;20119;-78
2022/02/21 05:26:00;;;;;;;5.95;2.67;;;;;;;15.01;72.41;101445.47;2040170;29;20085;-78
2022/02/21 05:27:21;;;;;;;7.82;3.60;;;;;;;15.03;72.50;101442.84;2045700;28;20138;-78
2022/02/21 05:28:44;;;;;;;11.23;4.93;;;;;;;15.01;72.77;101440.16;2045322;29;20503;-78
2022/02/21 05:30:07;;;;;;;12.80;5.97;;;;;;;15.02;72.14;101433.97;2045960;29;20574;-78
2022/02/21 05:31:30;;;;;;;12.38;7.60;;;;;;;15.03;72.23;101427.75;2038038;29;20676;-78
2022/02/21 05:32:53;;;;;;;11.63;6.00;;;;;;;15.03;72.09;101426.91;2042979;29;20080;-77
2022/02/21 05:34:15;;;;;;;6.25;3.20;;;;;;;15.03;72.27;101449.03;2040330;29;20471;-78
2022/02/21 05:35:37;;;;;;;6.85;2.55;;;;;;;15.04;71.91;101468.53;2040542;28;20051;-78
2022/02/21 05:37:00;;;;;;;5.15;2.53;;;;;;;15.07;71.79;101476.56;2037648;29;20135;-78
2022/02/21 05:38:23;;;;;;;6.43;3.13;;;;;;;15.09;71.55;101493.41;2042347;28;20051;-78
2022/02/21 05:39:48;;;;;;;7.40;4.20;;;;;;;15.12;71.27;101478.38;2037192;29;20071;-78
2022/02/21 05:41:09;;;;;;;8.18;4.88;;;;;;;15.12;71.18;101489.00;2037908;29;20052;-78
2022/02/21 05:42:32;;;;;;;13.00;6.43;;;;;;;15.14;71.37;101489.91;2040256;29;20043;-78
2022/02/21 05:43:55;;;;;;;9.77;6.35;;;;;;;15.14;71.68;101486.38;2029999;29;20048;-78
2022/02/21 05:45:17;;;;;;;12.68;8.35;;;;;;;15.15;71.58;101488.16;2041560;29;20102;-78
2022/02/21 05:46:40;;;;;;;18.88;12.38;;;;;;;15.14;71.57;101481.94;2045615;29;20518;-78
2022/02/21 05:48:03;;;;;;;17.10;10.43;;;;;;;15.15;71.07;101482.84;2045636;29;20491;-78
2022/02/21 05:49:26;;;;;;;7.82;5.90;;;;;;;15.13;71.29;101481.91;2042400;29;20475;-78
2022/02/21 05:50:48;;;;;;;11.90;6.13;;;;;;;15.14;71.35;101487.25;2040949;29;20198;-78
2022/02/21 05:52:11;;;;;;;16.13;8.45;;;;;;;15.16;71.41;101482.81;2053496;28;20515;-78
2022/02/21 05:53:32;;;;;;;15.00;6.35;;;;;;;15.19;70.98;101481.97;2048229;29;20047;-78
2022/02/21 05:54:56;;;;;;;8.25;4.50;;;;;;;15.25;70.89;101481.13;2044965;29;20043;-78
2022/02/21 05:56:19;;;;;;;11.13;5.47;;;;;;;15.31;70.74;101484.72;2045635;29;20077;-79
2022/02/21 05:57:41;;;;;;;9.07;4.15;;;;;;;15.39;70.55;101485.69;2037184;29;20104;-78
2022/02/21 05:59:04;;;;;;;6.78;1.80;;;;;;;15.49;70.42;101482.19;2035223;29;20102;-77
2022/02/21 06:00:28;;;;;;;7.82;2.97;;;;;;;15.60;70.02;101484.97;2028423;29;20075;-78
2022/02/21 06:01:51;;;;;;;4.82;2.83;;;;;;;15.71;69.63;101488.59;2037577;29;20138;-78
2022/02/21 06:03:14;;;;;;;8.48;2.72;;;;;;;15.79;69.31;101484.22;2039589;29;20488;-78
2022/02/21 06:04:37;;;;;;;8.55;2.33;;;;;;;15.87;68.94;101478.94;2039862;29;20079;-78
2022/02/21 06:05:59;;;;;;;2.97;1.45;;;;;;;15.93;68.35;101481.63;2041451;28;20059;-79
2022/02/21 06:07:22;;;;;;;3.53;1.83;;;;;;;16.00;67.86;101480.78;2045145;29;20471;-78
2022/02/21 06:08:43;;;;;;;11.05;4.13;;;;;;;16.08;67.60;101489.66;2044276;29;20142;-78
2022/02/21 06:10:09;;;;;;;8.30;2.53;;;;;;;16.15;67.46;101494.16;2046733;29;20046;-78
2022/02/21 06:11:32;;;;;;;4.10;2.72;;;;;;;16.18;67.35;101474.63;2045701;29;20086;-79
2022/02/21 06:12:55;;;;;;;7.32;4.22;;;;;;;16.19;66.41;101484.41;2040037;29;20047;-77
2022/02/21 06:14:17;;;;;;;7.75;4.07;;;;;;;16.21;66.66;101478.19;2027674;29;20138;-78
2022/02/21 06:15:40;;;;;;;7.85;4.18;;;;;;;16.21;65.93;101485.31;2036894;29;20077;-78
2022/02/21 06:17:02;;;;;;;6.30;2.95;;;;;;;16.23;65.72;101472.88;2042991;29;20480;-77
2022/02/21 06:18:26;;;;;;;4.13;2.05;;;;;;;16.26;65.51;101481.78;2045148;28;20612;-76
2022/02/21 06:19:48;;;;;;;4.57;2.13;;;;;;;16.30;65.56;101480.00;2045006;29;20051;-77
2022/02/21 06:21:10;;;;;;;4.07;1.48;;;;;;;16.32;64.63;101472.91;2050076;28;20487;-77
2022/02/21 06:22:33;;;;;;;1.80;1.23;;;;;;;16.37;64.75;101464.94;2046955;28;20515;-76
2022/02/21 06:23:56;;;;;;;4.30;1.60;;;;;;;16.40;64.19;101460.53;2045717;29;20047;-77
2022/02/21 06:25:21;;;;;;;3.38;1.15;;;;;;;16.46;63.55;101470.28;2045509;28;20047;-78